Tenakee Springs, Alaska
Current Conditions -  °F | °C
As of 12:56 AM on Saturday 22 Nov 2014 (Local Time) from PAOH Reporting Station
Broken Clouds Broken Clouds  
Wind Chill: 34°   Ceiling: 6000
Heat Index: 34°   Visibility: 10mi
Dew Point: 34°   Wind: 3mph
Humidity: 100%   Direction: 90°E
Pressure: 29.25"   Gusts: NA
Location:  57.78°N, 135.22°W
Report Text: PAOH 220956Z AUTO 09003KT 10SM FEW004 SCT039 BKN060 01/01 A2925 RMK AO2 TSNO T00110011 SLP907 $
Loading
Personal Weather Stations






























Interactive Weather Map New forecast layout! Learn more

10-Day Weather Forecast

Advertisements
Track Severe Weather on mobile